PABE Airport Information

Runway Information
Runway 01L Length 6400 ft width 150 ft
Elevation 125 ft Threshold 0 ft Heading 23
Runway 19R Length 6400 ft Width 150 ft
Elevation 100 ft Threshold 0 ft Heading 203
Runway 01R Length 4000 ft width 75 ft
Elevation 117 ft Threshold 0 ft Heading 23
Runway 19L Length 4000 ft Width 75 ft
Elevation 112 ft Threshold 0 ft Heading 203
Runway 12 Length 1860 ft width 75 ft
Elevation 123 ft Threshold 0 ft Heading 128
Runway 30 Length 1860 ft Width 75 ft
Elevation 124 ft Threshold 0 ft Heading 308
Airport Frequencies
Type ATIS Name ATIS Frequency 119.8 MHZ
Type CNTR Name ANCHORAGE Frequency 125.2 MHZ
Type CTAF Name CTAF/BETHE Frequency 118.7 MHZ
Type FSS Name KENAI RDO Frequency 122.65 MHZ
Type GND Name GND Frequency 121.7 MHZ
Type MISC Name TWEB Frequency 114.1 MHZ
Type OPS Name NG OPS Frequency 124.65 MHZ
Type TWR Name TWR Frequency 118.7 MHZ
Airport Navaids
Type VORTAC Name Bethel Frequency 114100 KHZ
Type NDB Name Bethel Frequency 344 KHZ
Type NDB Name Oscarville Frequency 251 KHZ
Airport Weather Information & NOTAM
ADDS - METARS form results

(1008 UTC 23 January 2022)
Data provider http://aviationweather.gov/metar/data/
 
METAR text: PABE 231002Z 34007KT 2SM BR FEW002 M17/M18 A2968 RMK AO2 T11721183
Conditions at: PABE (BETHEL , AK, US) observed 1002 UTC 23 January 2022
Temperature: -17.2°C ( 1°F)
Dewpoint: -18.3°C (-1°F) [RH = 91%]
Pressure (altimeter): 29.68 inches Hg (1005.2 mb)
Winds: from the NNW (340 degrees) at 8 MPH (7 knots; 3.6 m/s)
Visibility: 2.00 miles (3.22 km)
Ceiling: at least 12,000 feet AGL
Clouds: few clouds at 200 feet AGL
Weather: BR  (mist)

METAR text: PABE 230953Z 34008KT 1 1/2SM BR CLR M17/M18 A2967 RMK AO2 SLP051 I1000 T11721183
Conditions at: PABE (BETHEL , AK, US) observed 0953 UTC 23 January 2022
Temperature: -17.2°C ( 1°F)
Dewpoint: -18.3°C (-1°F) [RH = 91%]
Pressure (altimeter): 29.67 inches Hg (1004.8 mb)
[Sea-level pressure: 1005.1 mb]
Winds: from the NNW (340 degrees) at 9 MPH (8 knots; 4.1 m/s)
Visibility: 1.50 miles (2.41 km)
Ceiling: at least 12,000 feet AGL
Clouds: sky clear below 12,000 feet AGL
Weather: BR  (mist)

METAR text: PABE 230922Z 34008KT 1 3/4SM BR CLR M17/M18 A2968 RMK AO2 T11671178
Conditions at: PABE (BETHEL , AK, US) observed 0922 UTC 23 January 2022
Temperature: -16.7°C ( 2°F)
Dewpoint: -17.8°C (-0°F) [RH = 91%]
Pressure (altimeter): 29.68 inches Hg (1005.2 mb)
Winds: from the NNW (340 degrees) at 9 MPH (8 knots; 4.1 m/s)
Visibility: 1.75 miles (2.82 km)
Ceiling: at least 12,000 feet AGL
Clouds: sky clear below 12,000 feet AGL
Weather: BR  (mist)

Forecast for: PABE (BETHEL , AK, US)
Text: PABE 230936Z 2310/2406 34007KT P6SM VCFG FEW001 FEW080
Forecast period: 1000 to 1500 UTC 23 January 2022
Forecast type: FROM: standard forecast or significant change
Winds: from the NNW (340 degrees) at 8 MPH (7 knots; 3.6 m/s)
Visibility: 6 or more miles (10+ km)
Ceiling: at least 12,000 feet AGL
Clouds: few clouds at 100 feet AGL
few clouds at 8000 feet AGL
Weather: VCFG  (fog in vicinity)
Text: TEMPO 2310/2314 1SM BR SCT003
Forecast period: 1000 to 1400 UTC 23 January 2022
Forecast type: TEMPORARY: The following changes expected for less than half the time period
Visibility: 1.00 miles (1.61 km)
Ceiling: at least 12,000 feet AGL
Clouds: scattered clouds at 300 feet AGL
Weather: BR  (mist)
Text: FM231500 03012KT P6SM BKN050
Forecast period: 1500 UTC 23 January 2022 to 0000 UTC 24 January 2022
Forecast type: FROM: standard forecast or significant change
Winds: from the NNE (30 degrees) at 14 MPH (12 knots; 6.2 m/s)
Visibility: 6 or more miles (10+ km)
Ceiling: 5000 feet AGL
Clouds: broken clouds at 5000 feet AGL
Weather: no significant weather forecast for this period
Text: FM240000 04014G22KT 1SM -SN BLSN SCT015 OVC025
Forecast period: 0000 to 0600 UTC 24 January 2022
Forecast type: FROM: standard forecast or significant change
Winds: from the NE (40 degrees) at 16 MPH (14 knots; 7.2 m/s)
gusting to 25 MPH (22 knots; 11.3 m/s)
Visibility: 1.00 miles (1.61 km)
Ceiling: 2500 feet AGL
Clouds: scattered clouds at 1500 feet AGL
overcast cloud deck at 2500 feet AGL
Weather: -SN BLSN  (light snow, blowing snow)